Terminal Aerodrome Forecast
Issued by NWS Pueblo, CO

Home | Current Version | Previous Version | Text Only | Print | Product List | Glossary On
Versions: 1 2 3 4 5 6 7 8 9 10 11 12 13 14 15 16 17 18 19 20 21 22
000
FTUS45 KPUB 231533 AAA
TAFALS
TAF AMD
KALS 231533Z 2316/2412 21015G25KT P6SM SCT090 SCT150
     FM232000 23020G38KT P6SM VCSH SCT050 BKN100
     FM232200 23020G32KT 5SM -SHSN SCT020 BKN030
     FM240300 22014KT P6SM SCT040 BKN080
     FM240800 24010KT P6SM SCT100=

USA.gov is the U.S. government's official web portal to all federal, state and local government web resources and services.